createdAt,value
2023-02-14T00:01:28.135Z,45.22
2023-02-14T00:04:01.376Z,47.28
2023-02-14T00:06:30.267Z,52.47
2023-02-14T00:08:58.327Z,50.80
2023-02-14T00:11:26.598Z,49.67
2023-02-14T00:14:13.068Z,44.03
2023-02-14T00:16:41.294Z,46.80
2023-02-14T00:19:09.573Z,45.67
2023-02-14T00:21:38.526Z,46.55
2023-02-14T00:24:08.860Z,48.90
2023-02-14T00:26:39.027Z,45.78
2023-02-14T00:29:10.051Z,46.40
2023-02-14T00:31:38.073Z,45.75
2023-02-14T00:34:06.455Z,38.42
2023-02-14T00:36:35.243Z,45.53
2023-02-14T00:39:07.118Z,52.22
2023-02-14T00:41:35.010Z,50.87
2023-02-14T00:44:03.195Z,49.90
2023-02-14T00:46:31.126Z,56.63
2023-02-14T00:48:59.159Z,55.15
2023-02-14T00:51:27.293Z,56.08
2023-02-14T00:53:55.650Z,55.47
2023-02-14T00:56:23.715Z,66.00
2023-02-14T00:58:51.898Z,70.35
2023-02-14T01:01:20.054Z,63.40
2023-02-14T01:03:48.235Z,52.30
2023-02-14T01:06:16.233Z,66.30
2023-02-14T01:08:44.393Z,62.00
2023-02-14T01:11:18.000Z,55.70
2023-02-14T01:13:47.972Z,53.40
2023-02-14T01:16:18.094Z,61.05
2023-02-14T01:18:46.254Z,64.85
2023-02-14T01:21:20.290Z,64.47
2023-02-14T01:23:51.325Z,63.20
2023-02-14T01:26:20.223Z,64.30
2023-02-14T01:28:48.099Z,63.95
2023-02-14T01:31:22.122Z,72.38
2023-02-14T01:33:50.454Z,71.13
2023-02-14T01:36:25.429Z,67.90
2023-02-14T01:38:54.818Z,56.53
2023-02-14T01:41:24.411Z,55.30
2023-02-14T01:44:02.986Z,51.22
2023-02-14T01:46:33.448Z,49.13
2023-02-14T01:49:09.752Z,51.67
2023-02-14T01:51:39.202Z,45.88
2023-02-14T01:54:07.446Z,47.35
2023-02-14T01:56:41.582Z,48.25
2023-02-14T01:59:11.218Z,49.15
2023-02-14T02:01:39.401Z,50.22
2023-02-14T02:04:16.656Z,50.25
2023-02-14T02:06:46.792Z,53.67
2023-02-14T02:09:17.701Z,57.28
2023-02-14T02:11:46.084Z,54.78
2023-02-14T02:14:19.099Z,56.30
2023-02-14T02:17:05.812Z,60.95
2023-02-14T02:19:49.329Z,62.42
2023-02-14T02:22:29.031Z,66.00
2023-02-14T02:25:17.208Z,66.88
2023-02-14T02:28:14.470Z,68.75
2023-02-14T02:31:06.846Z,68.03
2023-02-14T02:33:43.512Z,73.38
2023-02-14T02:36:29.919Z,100.97
2023-02-14T02:39:09.442Z,105.30
2023-02-14T02:41:56.373Z,111.93
2023-02-14T02:44:58.586Z,77.25
2023-02-14T02:47:33.992Z,70.93
2023-02-14T02:50:42.017Z,77.38
2023-02-14T02:53:35.409Z,84.82
2023-02-14T02:56:31.130Z,80.10
2023-02-14T02:59:19.406Z,70.60
2023-02-14T03:02:08.089Z,87.18
2023-02-14T03:04:53.930Z,80.47
2023-02-14T03:07:37.247Z,91.22
2023-02-14T03:12:34.193Z,72.68
2023-02-14T03:15:30.449Z,88.70
2023-02-14T03:18:02.886Z,90.43
2023-02-14T03:20:45.874Z,102.28
2023-02-14T03:26:13.968Z,92.93
2023-02-14T03:29:02.774Z,106.10
2023-02-14T03:31:37.522Z,101.18
2023-02-14T03:34:17.747Z,100.70
2023-02-14T03:37:04.007Z,105.45
2023-02-14T03:40:10.307Z,104.13
2023-02-14T03:42:46.143Z,107.95
2023-02-14T03:45:19.042Z,112.80
2023-02-14T03:47:47.444Z,112.88
2023-02-14T03:50:17.804Z,122.72
2023-02-14T03:52:46.489Z,119.60
2023-02-14T03:55:17.101Z,119.40
2023-02-14T03:58:13.487Z,129.73
2023-02-14T04:00:41.640Z,135.45
2023-02-14T04:03:13.440Z,126.03
2023-02-14T04:05:43.907Z,106.63
2023-02-14T04:08:12.794Z,126.55
2023-02-14T04:10:42.312Z,133.88
2023-02-14T04:13:10.723Z,133.23
2023-02-14T04:15:38.468Z,132.38
2023-02-14T04:18:24.714Z,138.20
2023-02-14T04:20:52.494Z,145.48
2023-02-14T04:23:21.079Z,148.85
2023-02-14T04:25:48.902Z,148.63
2023-02-14T04:28:16.883Z,133.90
2023-02-14T04:30:44.953Z,128.52
2023-02-14T04:33:12.970Z,126.22
2023-02-14T04:35:41.121Z,125.68
2023-02-14T04:38:08.965Z,121.63
2023-02-14T04:40:36.703Z,122.60
2023-02-14T04:43:05.353Z,125.40
2023-02-14T04:45:33.381Z,121.07
2023-02-14T04:48:01.364Z,108.72
2023-02-14T04:50:29.155Z,102.10
2023-02-14T04:52:57.230Z,108.05
2023-02-14T04:55:25.346Z,104.85
2023-02-14T04:57:53.464Z,108.65
2023-02-14T05:00:22.229Z,106.72
2023-02-14T05:02:50.080Z,103.53
2023-02-14T05:05:18.247Z,97.75
2023-02-14T05:07:48.229Z,89.72
2023-02-14T05:10:16.286Z,98.35
2023-02-14T05:12:44.761Z,85.43
2023-02-14T05:15:12.596Z,76.82
2023-02-14T05:17:40.672Z,69.10
2023-02-14T05:20:09.368Z,72.75
2023-02-14T05:22:37.114Z,71.63
2023-02-14T05:25:05.101Z,70.05
2023-02-14T05:27:33.141Z,65.70
2023-02-14T05:30:01.061Z,63.45
2023-02-14T05:32:29.081Z,56.38
2023-02-14T05:34:57.091Z,65.28
2023-02-14T05:37:24.948Z,61.47
2023-02-14T05:39:52.946Z,60.55
2023-02-14T05:42:21.166Z,60.70
2023-02-14T05:44:49.237Z,60.55
2023-02-14T05:47:17.259Z,60.45
2023-02-14T05:49:45.298Z,57.72
2023-02-14T05:52:13.106Z,56.67
2023-02-14T05:54:41.138Z,58.45
2023-02-14T05:57:09.085Z,52.15
2023-02-14T05:59:37.463Z,51.63
2023-02-14T06:02:05.331Z,48.25
2023-02-14T06:04:33.754Z,43.78
2023-02-14T06:07:01.515Z,45.72
2023-02-14T06:09:29.335Z,40.75
2023-02-14T06:11:57.747Z,47.95
2023-02-14T06:14:25.629Z,46.50
2023-02-14T06:16:54.352Z,44.83
2023-02-14T06:19:22.593Z,48.15
2023-02-14T06:21:50.436Z,48.10
2023-02-14T06:24:18.867Z,46.42
2023-02-14T06:26:48.528Z,46.25
2023-02-14T06:29:18.169Z,47.42
2023-02-14T06:31:46.093Z,46.90
2023-02-14T06:34:15.920Z,46.63
2023-02-14T06:36:44.536Z,48.58
2023-02-14T06:39:13.009Z,44.63
2023-02-14T06:41:41.169Z,46.78
2023-02-14T06:44:11.085Z,47.92
2023-02-14T06:46:39.168Z,48.30
2023-02-14T06:49:06.899Z,49.55
2023-02-14T06:51:34.743Z,49.25
2023-02-14T06:54:03.165Z,50.35
2023-02-14T06:56:31.178Z,52.35
2023-02-14T06:58:59.502Z,51.65
2023-02-14T07:01:27.848Z,52.65
2023-02-14T07:03:56.910Z,52.47
2023-02-14T07:06:24.663Z,52.60
2023-02-14T07:08:52.348Z,54.15
2023-02-14T07:11:20.738Z,55.05
2023-02-14T07:13:49.621Z,52.45
2023-02-14T07:16:17.754Z,56.97
2023-02-14T07:18:46.160Z,56.92
2023-02-14T07:21:13.846Z,58.10
2023-02-14T07:23:41.830Z,59.75
2023-02-14T07:26:10.178Z,58.80
2023-02-14T07:28:38.323Z,59.90
2023-02-14T07:31:06.857Z,62.50
2023-02-14T07:33:35.020Z,63.45
2023-02-14T07:36:07.879Z,56.00
2023-02-14T07:41:03.359Z,58.60
2023-02-14T07:43:31.343Z,59.63
2023-02-14T07:46:00.995Z,65.20
2023-02-14T07:48:31.058Z,64.95
2023-02-14T07:51:00.591Z,65.68
2023-02-14T07:53:28.842Z,67.32
2023-02-14T07:55:57.257Z,69.50
2023-02-14T07:58:25.021Z,77.20
2023-02-14T08:00:53.075Z,68.75
2023-02-14T08:03:20.883Z,71.65
2023-02-14T08:05:57.530Z,70.80
2023-02-14T08:08:30.183Z,63.42
2023-02-14T08:10:58.545Z,59.45
2023-02-14T08:13:26.571Z,60.05
2023-02-14T08:16:06.897Z,57.20
2023-02-14T08:18:42.054Z,54.80
2023-02-14T08:21:11.318Z,47.72
2023-02-14T08:23:39.627Z,49.85
2023-02-14T08:26:08.059Z,56.70
2023-02-14T08:28:36.074Z,54.65
2023-02-14T08:31:04.556Z,52.83
2023-02-14T08:33:33.307Z,53.33
2023-02-14T08:36:01.205Z,50.92
2023-02-14T08:38:30.069Z,51.53
2023-02-14T08:41:04.552Z,50.40
2023-02-14T08:43:34.432Z,50.40
2023-02-14T08:46:03.089Z,51.00
2023-02-14T08:48:31.627Z,49.20
2023-02-14T08:50:59.719Z,54.28
2023-02-14T08:53:27.796Z,54.03
2023-02-14T08:55:55.628Z,50.35
2023-02-14T08:58:23.362Z,53.10
2023-02-14T09:00:51.559Z,52.25
2023-02-14T09:03:19.900Z,51.47
2023-02-14T09:05:47.885Z,46.95
2023-02-14T09:08:16.124Z,56.42
2023-02-14T09:10:44.137Z,51.53
2023-02-14T09:13:11.989Z,52.58
2023-02-14T09:15:40.688Z,52.78
2023-02-14T09:18:08.789Z,54.53
2023-02-14T09:20:37.148Z,48.00
2023-02-14T09:23:05.442Z,52.92
2023-02-14T09:25:33.699Z,54.65
2023-02-14T09:28:01.790Z,50.85
2023-02-14T09:30:29.684Z,49.65
2023-02-14T09:32:57.620Z,49.63
2023-02-14T09:35:25.385Z,48.72
2023-02-14T09:37:53.254Z,47.10
2023-02-14T09:40:21.352Z,51.28
2023-02-14T09:43:03.315Z,51.78
2023-02-14T09:45:31.878Z,50.22
2023-02-14T09:48:15.878Z,51.80
2023-02-14T09:50:49.097Z,46.97
2023-02-14T09:53:22.204Z,49.72
2023-02-14T09:56:15.488Z,51.72
2023-02-14T09:58:59.378Z,52.00
2023-02-14T10:01:32.617Z,50.67
2023-02-14T10:04:19.348Z,57.45
2023-02-14T10:07:12.593Z,63.47
2023-02-14T10:12:19.924Z,63.38
2023-02-14T10:14:48.027Z,61.33
2023-02-14T10:17:18.879Z,62.58
2023-02-14T10:19:57.019Z,62.92
2023-02-14T10:22:46.917Z,63.47
2023-02-14T10:25:25.272Z,53.55
2023-02-14T10:27:53.790Z,55.15
2023-02-14T10:30:23.097Z,49.50
2023-02-14T10:33:02.026Z,51.92
2023-02-14T10:35:40.984Z,45.45
2023-02-14T10:38:37.202Z,47.00
2023-02-14T10:41:25.180Z,39.67
2023-02-14T10:44:09.528Z,43.90
2023-02-14T10:47:01.374Z,44.17
2023-02-14T10:49:45.143Z,38.33
2023-02-14T10:52:22.454Z,50.33
2023-02-14T10:55:00.474Z,44.85
2023-02-14T10:57:41.688Z,46.95
2023-02-14T11:00:31.640Z,47.35
2023-02-14T11:03:00.961Z,44.22
2023-02-14T11:05:38.122Z,45.55
2023-02-14T11:08:23.713Z,48.20
2023-02-14T11:10:51.693Z,46.10
2023-02-14T11:13:35.784Z,45.42
2023-02-14T11:16:09.268Z,49.28
2023-02-14T11:18:41.334Z,50.78
2023-02-14T11:21:11.358Z,50.63
2023-02-14T11:23:44.977Z,48.80
2023-02-14T11:26:35.091Z,51.67
2023-02-14T11:29:10.800Z,51.70
2023-02-14T11:31:39.623Z,51.20
2023-02-14T11:34:26.290Z,53.08
2023-02-14T11:36:56.163Z,51.65
2023-02-14T11:39:28.713Z,51.33
2023-02-14T11:44:30.360Z,43.20
2023-02-14T11:49:32.140Z,43.03
2023-02-14T11:52:10.407Z,49.30
2023-02-14T11:54:41.037Z,47.47
2023-02-14T11:57:22.830Z,45.55
2023-02-14T11:59:54.664Z,46.27
2023-02-14T12:02:38.872Z,49.63
2023-02-14T12:05:29.314Z,46.25
2023-02-14T12:08:07.222Z,41.05
2023-02-14T12:10:40.630Z,39.92
2023-02-14T12:13:09.512Z,45.10
2023-02-14T12:15:47.916Z,47.13
2023-02-14T12:18:47.863Z,45.35
2023-02-14T12:21:23.666Z,43.08
2023-02-14T12:24:25.603Z,41.55
2023-02-14T12:27:01.813Z,44.63
2023-02-14T12:29:42.872Z,45.35
2023-02-14T12:32:20.725Z,43.00
2023-02-14T12:34:50.128Z,44.55
2023-02-14T12:37:24.764Z,44.10
2023-02-14T12:40:02.509Z,54.42
2023-02-14T12:42:47.378Z,56.05
2023-02-14T12:45:25.978Z,69.07
2023-02-14T12:48:16.322Z,65.13
2023-02-14T12:50:48.921Z,48.78
2023-02-14T12:53:38.860Z,39.47
2023-02-14T12:56:34.854Z,41.60
2023-02-14T12:59:28.281Z,37.38
2023-02-14T13:02:15.722Z,39.63
2023-02-14T13:05:02.691Z,37.58
2023-02-14T13:08:07.492Z,37.53
2023-02-14T13:10:47.865Z,42.53
2023-02-14T13:13:37.143Z,41.30
2023-02-14T13:16:22.623Z,44.17
2023-02-14T13:18:57.125Z,46.20
2023-02-14T13:21:32.181Z,48.17
2023-02-14T13:24:29.418Z,44.22
2023-02-14T13:27:00.311Z,46.40
2023-02-14T13:29:33.996Z,48.20
2023-02-14T13:32:03.528Z,41.97
2023-02-14T13:34:37.770Z,43.08
2023-02-14T13:37:08.856Z,42.13
2023-02-14T13:39:43.416Z,45.80
2023-02-14T13:42:13.421Z,43.70
2023-02-14T13:44:50.812Z,43.70
2023-02-14T13:47:27.208Z,48.22
2023-02-14T13:50:04.308Z,48.45
2023-02-14T13:52:47.105Z,51.45
2023-02-14T13:55:23.815Z,51.83
2023-02-14T13:58:24.764Z,51.35
2023-02-14T14:00:53.580Z,48.72
2023-02-14T14:03:31.486Z,44.83
2023-02-14T14:06:12.316Z,45.97
2023-02-14T14:08:44.229Z,47.53
2023-02-14T14:11:22.354Z,44.70
2023-02-14T14:14:02.404Z,38.55
2023-02-14T14:16:35.534Z,43.38
2023-02-14T14:19:21.387Z,35.30
2023-02-14T14:22:09.974Z,41.65
2023-02-14T14:24:38.444Z,42.40
2023-02-14T14:27:15.996Z,43.80
2023-02-14T14:29:54.689Z,42.85
2023-02-14T14:32:30.788Z,46.40
2023-02-14T14:35:23.161Z,45.53
2023-02-14T14:37:53.709Z,34.13
2023-02-14T14:40:30.482Z,37.03
2023-02-14T14:43:21.986Z,30.70
2023-02-14T14:45:50.169Z,36.10
2023-02-14T14:48:22.832Z,38.70
2023-02-14T14:50:51.287Z,35.08
2023-02-14T14:53:46.483Z,42.00
2023-02-14T14:56:24.832Z,43.13
2023-02-14T14:58:52.985Z,46.72
2023-02-14T15:01:38.110Z,38.80
2023-02-14T15:04:16.429Z,41.22
2023-02-14T15:06:45.416Z,36.22
2023-02-14T15:09:23.469Z,40.58
2023-02-14T15:12:11.048Z,46.63
2023-02-14T15:14:42.012Z,48.70
2023-02-14T15:17:25.905Z,39.83
2023-02-14T15:19:56.224Z,53.72
2023-02-14T15:22:37.398Z,51.25
2023-02-14T15:25:14.621Z,55.17
2023-02-14T15:27:42.671Z,50.35
2023-02-14T15:30:39.549Z,50.33
2023-02-14T15:33:07.529Z,38.67
2023-02-14T15:35:37.588Z,40.13
2023-02-14T15:38:06.413Z,36.70
2023-02-14T15:40:35.238Z,33.75
2023-02-14T15:43:33.371Z,34.13
2023-02-14T15:46:37.610Z,33.88
2023-02-14T15:49:12.745Z,36.13
2023-02-14T15:51:41.302Z,37.42
2023-02-14T15:54:47.867Z,36.80
2023-02-14T15:57:26.914Z,39.00
2023-02-14T15:59:55.358Z,38.47
2023-02-14T16:02:42.870Z,41.50
2023-02-14T16:05:23.639Z,36.47
2023-02-14T16:08:05.619Z,33.88
2023-02-14T16:10:34.624Z,30.52
2023-02-14T16:13:14.885Z,38.33
2023-02-14T16:16:00.798Z,37.90
2023-02-14T16:18:39.792Z,36.50
2023-02-14T16:21:28.042Z,39.13
2023-02-14T16:24:14.175Z,103.55
2023-02-14T16:26:43.684Z,54.17
2023-02-14T16:29:13.646Z,63.55
2023-02-14T16:34:40.859Z,106.32
2023-02-14T16:37:10.369Z,106.78
2023-02-14T16:39:38.326Z,92.32
2023-02-14T16:42:06.401Z,127.35
2023-02-14T16:44:34.369Z,127.63
2023-02-14T16:47:02.728Z,119.95
2023-02-14T16:49:30.488Z,123.15
2023-02-14T16:51:58.256Z,97.90
2023-02-14T16:54:26.299Z,104.78
2023-02-14T16:57:02.785Z,88.53
2023-02-14T16:59:30.953Z,104.50
2023-02-14T17:01:59.365Z,130.70
2023-02-14T17:04:27.481Z,171.02
2023-02-14T17:06:57.823Z,177.63
2023-02-14T17:09:32.638Z,180.70
2023-02-14T17:12:02.358Z,196.55
2023-02-14T17:14:33.018Z,195.35
2023-02-14T17:17:00.863Z,193.35
2023-02-14T17:19:28.824Z,204.15
2023-02-14T17:22:00.654Z,169.82
2023-02-14T17:24:28.465Z,123.82
2023-02-14T17:26:56.345Z,126.72
2023-02-14T17:29:24.128Z,116.43
2023-02-14T17:31:52.243Z,80.82
2023-02-14T17:34:20.138Z,100.25
2023-02-14T17:36:48.577Z,107.13
2023-02-14T17:39:18.920Z,80.13
2023-02-14T17:41:47.234Z,86.65
2023-02-14T17:44:16.176Z,69.22
2023-02-14T17:46:44.430Z,68.32
2023-02-14T17:49:12.762Z,56.45
2023-02-14T17:51:40.556Z,66.82
2023-02-14T17:54:08.565Z,48.50
2023-02-14T17:56:36.328Z,42.38
2023-02-14T17:59:04.469Z,54.60
2023-02-14T18:01:34.961Z,60.65
2023-02-14T18:04:03.557Z,66.28
2023-02-14T18:06:33.013Z,78.72
2023-02-14T18:09:02.055Z,84.40
2023-02-14T18:11:30.962Z,75.60
2023-02-14T18:14:00.158Z,73.70
2023-02-14T18:16:28.586Z,71.05
2023-02-14T18:18:56.739Z,70.30
2023-02-14T18:21:24.950Z,79.13
2023-02-14T18:23:53.409Z,75.78
2023-02-14T18:26:21.161Z,82.95
2023-02-14T18:28:51.649Z,74.65
2023-02-14T18:31:19.623Z,79.85
2023-02-14T18:33:48.398Z,86.18
2023-02-14T18:36:18.706Z,71.68
2023-02-14T18:38:48.341Z,56.13
2023-02-14T18:41:17.561Z,50.20
2023-02-14T18:43:45.752Z,52.25
2023-02-14T18:46:16.233Z,62.50
2023-02-14T18:48:48.200Z,72.10
2023-02-14T18:51:24.673Z,77.75
2023-02-14T18:53:52.642Z,73.10
2023-02-14T18:56:31.648Z,70.10
2023-02-14T18:59:01.830Z,74.20
2023-02-14T19:01:31.596Z,78.32
2023-02-14T19:04:00.497Z,77.65
2023-02-14T19:06:30.012Z,70.15
2023-02-14T19:08:58.637Z,76.05
2023-02-14T19:11:28.561Z,82.95
2023-02-14T19:13:57.340Z,84.25
2023-02-14T19:16:33.748Z,92.10
2023-02-14T19:19:03.007Z,73.28
2023-02-14T19:21:32.941Z,75.85
2023-02-14T19:24:01.615Z,81.90
2023-02-14T19:26:33.146Z,81.68
2023-02-14T19:29:02.667Z,84.03
2023-02-14T19:31:31.008Z,74.40
2023-02-14T19:33:59.089Z,71.05
2023-02-14T19:36:27.006Z,72.88
2023-02-14T19:38:56.444Z,79.93
2023-02-14T19:41:30.572Z,75.15
2023-02-14T19:43:59.489Z,83.43
2023-02-14T19:46:28.339Z,78.50
2023-02-14T19:48:57.678Z,78.35
2023-02-14T19:51:30.219Z,77.82
2023-02-14T19:53:59.668Z,81.97
2023-02-14T19:56:29.453Z,66.75
2023-02-14T19:58:57.715Z,58.83
2023-02-14T20:01:27.772Z,56.33
2023-02-14T20:03:55.837Z,63.65
2023-02-14T20:06:24.267Z,70.88
2023-02-14T20:08:52.335Z,58.92
2023-02-14T20:11:30.964Z,66.65
2023-02-14T20:13:59.719Z,62.53
2023-02-14T20:16:28.538Z,60.72
2023-02-14T20:18:56.503Z,60.08
2023-02-14T20:21:28.868Z,50.35
2023-02-14T20:26:29.887Z,51.65
2023-02-14T20:29:04.066Z,50.97
2023-02-14T20:31:32.993Z,49.75
2023-02-14T20:34:00.991Z,51.97
2023-02-14T20:36:29.062Z,57.13
2023-02-14T20:39:01.142Z,55.75
2023-02-14T20:41:29.437Z,54.40
2023-02-14T20:44:03.371Z,60.42
2023-02-14T20:46:32.161Z,57.08
2023-02-14T20:49:00.413Z,51.35
2023-02-14T20:51:28.453Z,50.08
2023-02-14T20:53:56.322Z,55.05
2023-02-14T20:56:24.334Z,67.60
2023-02-14T20:58:52.597Z,158.15
2023-02-14T21:01:24.457Z,199.20
2023-02-14T21:03:53.470Z,123.72
2023-02-14T21:06:23.603Z,172.05
2023-02-14T21:08:51.490Z,149.07
2023-02-14T21:11:20.651Z,161.95
2023-02-14T21:13:48.467Z,206.73
2023-02-14T21:16:17.878Z,189.95
2023-02-14T21:18:48.971Z,183.73
2023-02-14T21:21:20.931Z,205.27
2023-02-14T21:23:52.362Z,160.07
2023-02-14T21:26:20.706Z,185.18
2023-02-14T21:28:48.837Z,191.35
2023-02-14T21:31:18.530Z,175.77
2023-02-14T21:33:46.374Z,203.52
2023-02-14T21:36:16.276Z,185.13
2023-02-14T21:38:44.334Z,174.55
2023-02-14T21:41:14.139Z,180.98
2023-02-14T21:43:43.988Z,177.70
2023-02-14T21:46:27.780Z,179.65
2023-02-14T21:49:14.298Z,168.52
2023-02-14T21:51:42.465Z,150.73
2023-02-14T21:54:10.642Z,163.48
2023-02-14T21:56:39.198Z,132.30
2023-02-14T21:59:07.058Z,139.73
2023-02-14T22:01:35.933Z,139.70
2023-02-14T22:04:08.116Z,134.32
2023-02-14T22:06:38.050Z,135.38
2023-02-14T22:09:05.932Z,138.57
2023-02-14T22:11:34.231Z,117.95
2023-02-14T22:14:02.003Z,122.53
2023-02-14T22:16:30.204Z,122.80
2023-02-14T22:18:58.259Z,116.03
2023-02-14T22:21:26.989Z,129.00
2023-02-14T22:23:56.000Z,148.50
2023-02-14T22:26:28.882Z,123.97
2023-02-14T22:28:59.753Z,129.13
2023-02-14T22:31:29.754Z,113.40
2023-02-14T22:33:57.751Z,111.80
2023-02-14T22:36:25.732Z,98.72
2023-02-14T22:38:53.640Z,108.47
2023-02-14T22:41:23.096Z,101.95
2023-02-14T22:43:51.556Z,97.45
2023-02-14T22:46:21.592Z,89.45
2023-02-14T22:48:49.830Z,91.90
2023-02-14T22:51:27.991Z,90.95
2023-02-14T22:54:00.995Z,82.95
2023-02-14T22:56:36.289Z,78.78
2023-02-14T22:59:06.684Z,70.85
2023-02-14T23:01:35.122Z,69.15
2023-02-14T23:04:03.571Z,67.13
2023-02-14T23:06:33.107Z,58.53
2023-02-14T23:09:01.568Z,52.65
2023-02-14T23:11:30.628Z,47.00
2023-02-14T23:14:17.472Z,50.75
2023-02-14T23:17:03.944Z,46.85
2023-02-14T23:19:52.404Z,48.75
2023-02-14T23:22:28.379Z,46.33
2023-02-14T23:25:00.585Z,53.65
2023-02-14T23:27:34.129Z,53.22
2023-02-14T23:30:02.575Z,55.80
2023-02-14T23:32:30.437Z,49.33
2023-02-14T23:34:58.771Z,44.08
2023-02-14T23:37:26.590Z,47.17
2023-02-14T23:39:54.362Z,43.63
2023-02-14T23:42:22.541Z,42.20
2023-02-14T23:44:50.328Z,47.47
2023-02-14T23:47:18.696Z,43.53
2023-02-14T23:49:46.613Z,43.85
2023-02-14T23:52:15.106Z,42.35
2023-02-14T23:54:42.937Z,46.40
2023-02-14T23:57:10.819Z,44.45
2023-02-14T23:59:38.593Z,40.55
